Time;durP1;ratioP1;P1;durP2;ratioP2;P2;SDS_P1;SDS_P2;PMS_P1;PMS_P2;Temp;Humidity;BMP_temperature;BMP_pressure;BME280_temperature;BME280_humidity;BME280_pressure;Samples;Min_cycle;Max_cycle;Signal;HPM_P1;HPM_P2
2022/07/16 00:01:26;;;;;;;0.95;0.75;;;;;22.80;101998.00;;;;5043939;28;20210;-79
2022/07/16 00:03:55;;;;;;;1.27;1.17;;;;;22.80;101992.00;;;;5041843;28;20345;-79
2022/07/16 00:06:25;;;;;;;0.60;0.60;;;;;22.80;101990.00;;;;5030051;28;20223;-79
2022/07/16 00:08:53;;;;;;;3.25;1.00;;;;;22.80;101991.00;;;;5033529;28;20200;-79
2022/07/16 00:11:21;;;;;;;1.48;0.95;;;;;22.80;101988.00;;;;5029975;28;20208;-78
2022/07/16 00:13:49;;;;;;;1.50;1.00;;;;;22.80;101985.00;;;;5034343;28;20188;-79
2022/07/16 00:16:16;;;;;;;0.85;0.85;;;;;22.90;101984.00;;;;5029294;28;20192;-79
2022/07/16 00:21:30;;;;;;;1.45;1.10;;;;;22.90;101982.00;;;;5034765;28;20207;-79
2022/07/16 00:23:57;;;;;;;0.95;0.80;;;;;22.90;101984.00;;;;5032671;28;20219;-79
2022/07/16 00:26:24;;;;;;;0.90;0.80;;;;;22.90;101983.00;;;;5029647;28;20211;-79
2022/07/16 00:28:52;;;;;;;1.63;0.80;;;;;22.90;101993.00;;;;5040089;28;20208;-79
2022/07/16 00:31:19;;;;;;;1.15;0.98;;;;;23.00;101985.00;;;;5030089;28;20204;-79
2022/07/16 00:33:47;;;;;;;2.38;0.95;;;;;23.00;101989.00;;;;5028634;28;20201;-79
2022/07/16 00:36:14;;;;;;;0.88;0.80;;;;;23.00;101981.00;;;;5031659;28;20223;-79
2022/07/16 00:38:43;;;;;;;1.95;0.85;;;;;23.00;101981.00;;;;5028541;28;20192;-79
2022/07/16 00:41:16;;;;;;;1.15;1.00;;;;;23.00;101979.00;;;;5029026;28;20203;-79
2022/07/16 00:43:48;;;;;;;1.45;1.00;;;;;23.00;101984.00;;;;5039029;28;20230;-79
2022/07/16 00:46:16;;;;;;;0.80;0.70;;;;;23.00;101982.00;;;;5029960;28;20215;-79
2022/07/16 00:48:44;;;;;;;0.95;0.65;;;;;23.00;101985.00;;;;5030288;28;20195;-79
2022/07/16 00:51:12;;;;;;;1.95;0.95;;;;;23.00;101985.00;;;;5028260;28;20693;-79
2022/07/16 00:53:42;;;;;;;1.77;1.02;;;;;23.00;101974.00;;;;5032814;28;20205;-79
2022/07/16 00:56:11;;;;;;;2.40;1.20;;;;;23.00;101979.00;;;;5042813;28;20235;-80
2022/07/16 00:58:39;;;;;;;1.42;1.10;;;;;23.00;101979.00;;;;5033311;28;20206;-79
2022/07/16 01:01:07;;;;;;;1.15;0.70;;;;;23.00;101978.00;;;;5030290;28;20192;-79
2022/07/16 01:03:35;;;;;;;1.30;1.10;;;;;23.00;101976.00;;;;5028191;28;20219;-79
2022/07/16 01:06:03;;;;;;;1.58;1.10;;;;;23.00;101978.00;;;;5034179;28;20677;-79
2022/07/16 01:08:33;;;;;;;2.30;0.90;;;;;23.00;101983.00;;;;5035485;28;20203;-79
2022/07/16 01:11:02;;;;;;;1.42;0.70;;;;;23.00;101983.00;;;;5028230;28;20200;-79
2022/07/16 01:13:31;;;;;;;1.60;1.10;;;;;23.00;101980.00;;;;5037022;28;20577;-79
2022/07/16 01:15:58;;;;;;;1.20;0.80;;;;;23.00;101979.00;;;;5030584;28;20211;-79
2022/07/16 01:18:25;;;;;;;1.95;1.02;;;;;23.00;101974.00;;;;5027001;28;20204;-79
2022/07/16 01:20:53;;;;;;;1.75;1.17;;;;;23.00;101974.00;;;;5030097;28;20207;-79
2022/07/16 01:23:22;;;;;;;2.55;1.42;;;;;23.00;101982.00;;;;5034319;28;20234;-79
2022/07/16 01:25:49;;;;;;;2.35;1.25;;;;;23.00;101975.00;;;;5036173;28;20204;-79
2022/07/16 01:28:17;;;;;;;2.85;1.25;;;;;23.00;101977.00;;;;5030216;28;20199;-80
2022/07/16 01:30:45;;;;;;;2.90;1.27;;;;;23.00;101976.00;;;;5041407;28;20200;-79
2022/07/16 01:33:21;;;;;;;1.63;1.30;;;;;22.90;101975.00;;;;5030033;28;20196;-79
2022/07/16 01:35:48;;;;;;;3.08;1.25;;;;;23.00;101976.00;;;;5030856;28;20621;-79
2022/07/16 01:38:16;;;;;;;1.80;1.27;;;;;23.00;101977.00;;;;5029562;28;20200;-79
2022/07/16 01:40:44;;;;;;;3.88;1.45;;;;;23.00;101971.00;;;;5032728;28;20214;-79
2022/07/16 01:43:16;;;;;;;1.67;1.02;;;;;22.90;101964.00;;;;5043443;28;20219;-79
2022/07/16 01:45:44;;;;;;;2.35;1.35;;;;;23.00;101967.00;;;;5027622;28;20200;-79
2022/07/16 01:48:12;;;;;;;1.48;1.30;;;;;23.00;101968.00;;;;5030175;28;20779;-79
2022/07/16 01:50:40;;;;;;;2.55;1.60;;;;;23.00;101969.00;;;;5045361;28;20257;-79
2022/07/16 01:53:09;;;;;;;1.98;1.08;;;;;23.00;101964.00;;;;5041899;28;20196;-79
2022/07/16 01:55:37;;;;;;;3.10;1.30;;;;;23.00;101970.00;;;;5046240;28;20200;-80
2022/07/16 01:58:07;;;;;;;2.22;1.35;;;;;23.00;101961.00;;;;5031017;28;20697;-79
2022/07/16 02:00:35;;;;;;;1.73;0.88;;;;;23.00;101970.00;;;;5031559;28;20211;-79
2022/07/16 02:03:03;;;;;;;2.20;1.33;;;;;23.00;101965.00;;;;5042027;28;20298;-79
2022/07/16 02:05:30;;;;;;;5.18;1.38;;;;;23.00;101964.00;;;;5033117;28;20212;-79
2022/07/16 02:07:58;;;;;;;2.00;1.35;;;;;23.00;101967.00;;;;5038327;28;20685;-80
2022/07/16 02:10:25;;;;;;;1.83;1.38;;;;;23.00;101966.00;;;;5032794;28;20699;-79
2022/07/16 02:12:52;;;;;;;4.05;1.63;;;;;23.00;101957.00;;;;5029986;28;20221;-77
2022/07/16 02:15:21;;;;;;;2.55;1.38;;;;;23.00;101964.00;;;;5035783;28;20203;-77
2022/07/16 02:17:48;;;;;;;2.00;1.30;;;;;23.00;101964.00;;;;5042833;28;20749;-78
2022/07/16 02:20:16;;;;;;;1.77;1.50;;;;;23.00;101965.00;;;;5037970;28;20200;-78
2022/07/16 02:22:43;;;;;;;2.70;1.30;;;;;22.90;101967.00;;;;5039232;28;20203;-78
2022/07/16 02:25:12;;;;;;;2.08;1.63;;;;;22.90;101972.00;;;;5029627;28;20339;-78
2022/07/16 02:28:05;;;;;;;1.20;1.10;;;;;22.90;101967.00;;;;5030613;28;20199;-78
2022/07/16 02:30:28;;;;;;;1.60;1.23;;;;;22.80;101972.00;;;;5033796;28;20202;-79
2022/07/16 02:32:56;;;;;;;2.17;1.40;;;;;22.80;101977.00;;;;5050037;28;20245;-78
2022/07/16 02:35:23;;;;;;;1.92;1.15;;;;;22.80;101974.00;;;;5051606;28;20187;-78
2022/07/16 02:37:51;;;;;;;1.92;1.15;;;;;22.80;101980.00;;;;5031778;28;20196;-78
2022/07/16 02:40:19;;;;;;;2.05;1.05;;;;;22.80;101977.00;;;;5034464;28;20564;-78
2022/07/16 02:42:46;;;;;;;2.75;1.20;;;;;22.80;101976.00;;;;5035324;28;20207;-78
2022/07/16 02:45:13;;;;;;;1.35;1.20;;;;;22.70;101979.00;;;;5029616;28;20710;-78
2022/07/16 02:47:42;;;;;;;1.55;1.00;;;;;22.70;101978.00;;;;5031364;28;20250;-78
2022/07/16 02:50:10;;;;;;;2.15;1.17;;;;;22.70;101976.00;;;;5031406;28;20211;-78
2022/07/16 02:52:37;;;;;;;1.10;0.93;;;;;22.60;101965.00;;;;5039214;28;20199;-78
2022/07/16 02:55:06;;;;;;;1.23;1.00;;;;;22.60;101982.00;;;;5037751;28;20220;-78
2022/07/16 02:57:33;;;;;;;1.60;1.15;;;;;22.60;101979.00;;;;5049535;28;20219;-78
2022/07/16 03:00:01;;;;;;;2.08;1.27;;;;;22.60;101978.00;;;;5038297;28;20211;-78
2022/07/16 03:02:28;;;;;;;1.67;1.13;;;;;22.50;101978.00;;;;5030184;28;20192;-78
2022/07/16 03:04:57;;;;;;;1.27;1.17;;;;;22.50;101983.00;;;;5031462;28;20236;-78
2022/07/16 03:07:24;;;;;;;1.70;1.00;;;;;22.50;101984.00;;;;5032883;28;20200;-78
2022/07/16 03:09:51;;;;;;;1.00;0.80;;;;;22.40;101987.00;;;;5030368;28;20216;-79
2022/07/16 03:12:19;;;;;;;2.17;1.25;;;;;22.40;101990.00;;;;5035260;28;20195;-78
2022/07/16 03:14:46;;;;;;;1.38;0.93;;;;;22.40;101998.00;;;;5042557;28;20211;-78
2022/07/16 03:17:13;;;;;;;2.80;1.58;;;;;22.30;101992.00;;;;5030811;28;20204;-78
2022/07/16 03:19:41;;;;;;;2.90;1.20;;;;;22.30;101994.00;;;;5030428;28;20200;-78
2022/07/16 03:22:10;;;;;;;1.17;1.00;;;;;22.30;102000.00;;;;5034968;28;20215;-78
2022/07/16 03:24:37;;;;;;;1.80;1.38;;;;;22.20;101991.00;;;;5048442;28;20702;-78
2022/07/16 03:27:05;;;;;;;3.08;1.60;;;;;22.20;102007.00;;;;5045943;28;20210;-79
2022/07/16 03:29:32;;;;;;;2.22;1.40;;;;;22.20;102007.00;;;;5034359;28;20203;-78
2022/07/16 03:31:59;;;;;;;2.90;1.63;;;;;22.20;102000.00;;;;5043836;28;20298;-79
2022/07/16 03:34:27;;;;;;;1.73;1.33;;;;;22.20;102017.00;;;;5033812;28;20535;-78
2022/07/16 03:36:54;;;;;;;2.17;1.25;;;;;22.10;102020.00;;;;5042151;28;20214;-79
2022/07/16 03:39:23;;;;;;;3.53;1.73;;;;;22.10;102014.00;;;;5038952;28;20214;-78
2022/07/16 03:41:50;;;;;;;3.03;1.58;;;;;22.10;102016.00;;;;5038779;28;20192;-78
2022/07/16 03:44:17;;;;;;;2.78;1.65;;;;;22.10;102024.00;;;;5035796;28;20232;-78
2022/07/16 03:46:45;;;;;;;1.35;1.05;;;;;22.10;102024.00;;;;5029161;28;20204;-78
2022/07/16 03:49:12;;;;;;;1.75;1.60;;;;;22.10;102022.00;;;;5030845;28;20196;-78
2022/07/16 03:51:40;;;;;;;1.80;1.13;;;;;22.10;102027.00;;;;5031675;28;20208;-78
2022/07/16 03:54:07;;;;;;;2.40;1.40;;;;;22.10;102025.00;;;;5029749;28;20200;-78
2022/07/16 03:56:36;;;;;;;2.25;1.30;;;;;22.10;102030.00;;;;5028946;28;20236;-78
2022/07/16 03:59:03;;;;;;;2.30;1.63;;;;;22.10;102037.00;;;;5036139;28;20210;-78
2022/07/16 04:01:31;;;;;;;6.75;2.58;;;;;22.10;102038.00;;;;5044553;28;20207;-78
2022/07/16 04:03:58;;;;;;;2.08;1.40;;;;;22.10;102038.00;;;;5033043;28;20217;-78
2022/07/16 04:06:25;;;;;;;1.60;1.20;;;;;22.10;102036.00;;;;5035676;28;20196;-78
2022/07/16 04:08:52;;;;;;;2.33;1.00;;;;;22.10;102039.00;;;;5046719;28;20664;-78
2022/07/16 04:11:20;;;;;;;3.20;1.55;;;;;22.10;102041.00;;;;5034949;28;20196;-78
2022/07/16 04:13:49;;;;;;;2.42;1.20;;;;;22.10;102044.00;;;;5034895;28;20633;-78
2022/07/16 04:16:16;;;;;;;1.55;1.05;;;;;22.20;102047.00;;;;5046595;28;20203;-78
2022/07/16 04:18:43;;;;;;;1.63;1.10;;;;;22.20;102045.00;;;;5033698;28;20200;-78
2022/07/16 04:21:11;;;;;;;1.55;1.23;;;;;22.20;102041.00;;;;5029382;28;20201;-78
2022/07/16 04:23:38;;;;;;;2.25;0.98;;;;;22.20;102043.00;;;;5030398;28;20203;-78
2022/07/16 04:26:05;;;;;;;1.33;0.90;;;;;22.20;102052.00;;;;5028677;28;20208;-78
2022/07/16 04:28:33;;;;;;;1.17;0.93;;;;;22.30;102049.00;;;;5037995;28;20203;-79
2022/07/16 04:31:02;;;;;;;1.70;1.00;;;;;22.30;102052.00;;;;5032321;28;20581;-79
2022/07/16 04:33:29;;;;;;;2.35;0.77;;;;;22.30;102059.00;;;;5034668;28;20688;-78
2022/07/16 04:35:56;;;;;;;2.78;0.93;;;;;22.30;102060.00;;;;5045239;28;20192;-79
2022/07/16 04:38:23;;;;;;;1.83;0.98;;;;;22.30;102060.00;;;;5035965;28;20203;-78
2022/07/16 04:40:51;;;;;;;2.75;1.25;;;;;22.40;102069.00;;;;5042448;28;20210;-78
2022/07/16 04:43:18;;;;;;;1.08;0.73;;;;;22.40;102065.00;;;;5044689;28;20597;-78
2022/07/16 04:45:45;;;;;;;2.17;0.93;;;;;22.50;102073.00;;;;5033803;28;20227;-78
2022/07/16 04:48:14;;;;;;;3.47;0.80;;;;;22.50;102074.00;;;;5041120;28;20199;-79
2022/07/16 04:50:41;;;;;;;0.93;0.63;;;;;22.50;102082.00;;;;5038478;28;20203;-79
2022/07/16 04:53:09;;;;;;;1.67;0.95;;;;;22.60;102083.00;;;;5036066;28;20254;-79
2022/07/16 04:55:36;;;;;;;1.90;0.80;;;;;22.60;102082.00;;;;5033479;28;20199;-79
2022/07/16 04:58:03;;;;;;;2.58;0.68;;;;;22.70;102089.00;;;;5036244;28;20208;-79
2022/07/16 05:00:31;;;;;;;1.40;0.57;;;;;22.70;102091.00;;;;5032413;28;20192;-79
2022/07/16 05:02:58;;;;;;;1.30;0.57;;;;;22.80;102088.00;;;;5028010;28;20200;-79
2022/07/16 05:05:29;;;;;;;0.60;0.55;;;;;22.80;102093.00;;;;5045810;28;20223;-79
2022/07/16 05:07:56;;;;;;;1.73;0.68;;;;;22.80;102096.00;;;;5038164;28;20200;-79
2022/07/16 05:10:24;;;;;;;0.82;0.50;;;;;22.90;102094.00;;;;5030180;28;20212;-79
2022/07/16 05:12:52;;;;;;;0.93;0.70;;;;;22.90;102093.00;;;;5038423;28;20231;-79
2022/07/16 05:15:21;;;;;;;1.23;0.55;;;;;23.00;102101.00;;;;5032176;28;20204;-79
2022/07/16 05:17:48;;;;;;;0.45;0.40;;;;;23.00;102106.00;;;;5032438;28;20208;-79
2022/07/16 05:20:16;;;;;;;0.82;0.47;;;;;23.10;102100.00;;;;5029986;28;20196;-79
2022/07/16 05:22:45;;;;;;;1.15;0.40;;;;;23.10;102103.00;;;;5029467;28;20200;-79
2022/07/16 05:25:14;;;;;;;0.82;0.73;;;;;23.10;102099.00;;;;5028698;28;20247;-79
2022/07/16 05:27:41;;;;;;;2.78;0.80;;;;;23.20;102116.00;;;;5042078;28;20575;-79
2022/07/16 05:30:10;;;;;;;0.63;0.35;;;;;23.20;102109.00;;;;5032492;28;20204;-79
2022/07/16 05:32:37;;;;;;;2.47;0.47;;;;;23.30;102119.00;;;;5036371;28;20196;-79
2022/07/16 05:35:06;;;;;;;1.65;0.80;;;;;23.30;102127.00;;;;5034460;28;20196;-79
2022/07/16 05:37:33;;;;;;;3.05;0.50;;;;;23.40;102126.00;;;;5026820;28;20196;-79
2022/07/16 05:40:02;;;;;;;1.05;0.40;;;;;23.40;102116.00;;;;5028413;28;20196;-79
2022/07/16 05:42:30;;;;;;;1.45;0.80;;;;;23.50;102122.00;;;;5028146;28;20188;-79
2022/07/16 05:44:57;;;;;;;3.70;0.68;;;;;23.50;102120.00;;;;5034368;28;20228;-79
2022/07/16 05:47:24;;;;;;;1.48;0.50;;;;;23.50;102120.00;;;;5038597;28;20679;-79
2022/07/16 05:49:52;;;;;;;1.55;0.60;;;;;23.50;102126.00;;;;5033463;28;20649;-79
2022/07/16 05:52:19;;;;;;;2.17;0.63;;;;;23.50;102130.00;;;;5033770;28;20577;-79
2022/07/16 05:54:46;;;;;;;0.90;0.40;;;;;23.60;102120.00;;;;5034101;28;20195;-79
2022/07/16 05:57:15;;;;;;;1.65;0.60;;;;;23.60;102136.00;;;;5032129;28;20236;-79
2022/07/16 05:59:42;;;;;;;1.80;0.70;;;;;23.70;102138.00;;;;5028682;28;20215;-78
2022/07/16 06:02:10;;;;;;;1.17;0.60;;;;;23.70;102144.00;;;;5037862;28;20610;-79
2022/07/16 06:04:37;;;;;;;2.75;0.70;;;;;23.70;102138.00;;;;5041323;28;20230;-80
2022/07/16 06:07:04;;;;;;;1.15;0.60;;;;;23.70;102141.00;;;;5029894;28;20200;-79
2022/07/16 06:09:32;;;;;;;1.50;0.70;;;;;23.70;102155.00;;;;5027965;28;20201;-78
2022/07/16 06:11:59;;;;;;;1.48;0.60;;;;;23.70;102153.00;;;;5032602;28;20202;-77
2022/07/16 06:14:28;;;;;;;4.22;0.60;;;;;23.70;102148.00;;;;5041765;28;20200;-76
2022/07/16 06:16:55;;;;;;;0.88;0.60;;;;;23.70;102149.00;;;;5046936;28;20199;-77
2022/07/16 06:19:22;;;;;;;1.90;0.90;;;;;23.70;102163.00;;;;5046179;28;20215;-79
2022/07/16 06:21:49;;;;;;;1.08;0.55;;;;;23.80;102162.00;;;;5029556;28;20234;-79
2022/07/16 06:24:17;;;;;;;2.78;0.52;;;;;23.80;102161.00;;;;5043595;28;20232;-78
2022/07/16 06:26:47;;;;;;;1.95;0.65;;;;;23.80;102171.00;;;;5027744;28;20193;-79
2022/07/16 06:29:15;;;;;;;1.60;0.60;;;;;23.90;102175.00;;;;5037149;28;20681;-79
2022/07/16 06:31:44;;;;;;;0.50;0.40;;;;;23.90;102178.00;;;;5038833;28;20659;-79
2022/07/16 06:34:12;;;;;;;2.08;0.82;;;;;24.00;102179.00;;;;5047052;28;20196;-78
2022/07/16 06:36:40;;;;;;;2.65;0.68;;;;;24.00;102181.00;;;;5037749;28;20201;-78
2022/07/16 06:39:07;;;;;;;1.83;0.65;;;;;24.00;102181.00;;;;5030461;28;20196;-79
2022/07/16 06:41:36;;;;;;;1.23;0.43;;;;;24.10;102180.00;;;;5040759;28;20215;-79
2022/07/16 06:44:04;;;;;;;1.40;0.50;;;;;24.10;102184.00;;;;5039796;28;20215;-79
2022/07/16 06:46:31;;;;;;;1.15;0.43;;;;;24.20;102181.00;;;;5050646;28;20231;-79
2022/07/16 06:49:00;;;;;;;1.67;0.45;;;;;24.20;102192.00;;;;5050594;28;20192;-78
2022/07/16 06:51:28;;;;;;;2.88;0.60;;;;;24.30;102186.00;;;;5036583;28;20195;-79
2022/07/16 06:53:55;;;;;;;3.28;0.68;;;;;24.30;102188.00;;;;5044151;28;20704;-77
2022/07/16 06:56:22;;;;;;;1.23;0.68;;;;;24.40;102198.00;;;;5030815;28;20242;-76
2022/07/16 06:58:50;;;;;;;3.33;0.57;;;;;24.50;102201.00;;;;5030866;28;20204;-77
2022/07/16 07:01:17;;;;;;;1.15;0.70;;;;;24.50;102200.00;;;;5042410;28;20189;-77
2022/07/16 07:03:44;;;;;;;3.25;0.45;;;;;24.50;102201.00;;;;5030904;28;20196;-77
2022/07/16 07:06:13;;;;;;;0.55;0.38;;;;;24.50;102203.00;;;;5032496;28;20221;-77
2022/07/16 07:08:40;;;;;;;0.95;0.40;;;;;24.60;102206.00;;;;5050505;28;20206;-77
2022/07/16 07:11:09;;;;;;;1.95;0.65;;;;;24.60;102209.00;;;;5043827;28;20203;-77
2022/07/16 07:13:37;;;;;;;2.22;0.40;;;;;24.70;102206.00;;;;5038217;28;20203;-77
2022/07/16 07:16:05;;;;;;;0.68;0.30;;;;;24.70;102212.00;;;;5049611;28;20246;-77
2022/07/16 07:18:33;;;;;;;2.88;0.60;;;;;24.80;102218.00;;;;5043512;28;20571;-77
2022/07/16 07:21:01;;;;;;;2.50;0.60;;;;;24.80;102220.00;;;;5044782;28;20204;-78
2022/07/16 07:23:30;;;;;;;0.32;0.20;;;;;24.90;102221.00;;;;5045496;28;20200;-77
2022/07/16 07:25:57;;;;;;;3.80;0.35;;;;;25.00;102220.00;;;;5036311;28;20224;-77
2022/07/16 07:28:25;;;;;;;1.48;0.30;;;;;25.00;102220.00;;;;5030701;28;20309;-78
2022/07/16 07:30:52;;;;;;;1.13;0.30;;;;;25.10;102238.00;;;;5038082;28;20195;-78
2022/07/16 07:33:20;;;;;;;1.35;0.30;;;;;25.20;102228.00;;;;5049821;28;20195;-79
2022/07/16 07:35:47;;;;;;;8.60;4.65;;;;;25.20;102235.00;;;;5048217;28;20201;-79
2022/07/16 07:38:14;;;;;;;6.47;1.92;;;;;25.30;102231.00;;;;5032308;28;20199;-77
2022/07/16 07:40:43;;;;;;;3.85;1.17;;;;;25.30;102237.00;;;;5042155;28;20200;-77
2022/07/16 07:43:10;;;;;;;2.13;0.63;;;;;25.40;102233.00;;;;5033254;28;20235;-78
2022/07/16 07:45:37;;;;;;;4.68;0.95;;;;;25.50;102243.00;;;;5039291;28;20230;-77
2022/07/16 07:48:05;;;;;;;1.67;0.45;;;;;25.50;102239.00;;;;5030218;28;20231;-78
2022/07/16 07:50:33;;;;;;;1.83;0.47;;;;;25.60;102245.00;;;;5036734;28;20200;-77
2022/07/16 07:53:00;;;;;;;0.82;0.30;;;;;25.70;102252.00;;;;5029445;28;20668;-77
2022/07/16 07:55:27;;;;;;;2.60;0.60;;;;;25.70;102238.00;;;;5029453;28;20192;-77
2022/07/16 07:57:56;;;;;;;1.23;0.40;;;;;25.80;102252.00;;;;5030029;28;20200;-77
2022/07/16 08:00:24;;;;;;;1.52;0.40;;;;;25.90;102255.00;;;;5031586;28;20200;-77
2022/07/16 08:02:51;;;;;;;1.60;0.40;;;;;26.00;102258.00;;;;5048164;28;20207;-77
2022/07/16 08:05:18;;;;;;;3.00;0.47;;;;;26.00;102247.00;;;;5035749;28;20220;-77
2022/07/16 08:07:46;;;;;;;0.65;0.40;;;;;26.10;102248.00;;;;5049932;28;20212;-77
2022/07/16 08:10:14;;;;;;;1.13;0.22;;;;;26.10;102256.00;;;;5045604;28;20210;-77
2022/07/16 08:12:42;;;;;;;1.48;0.50;;;;;26.20;102256.00;;;;5028365;28;20284;-76
2022/07/16 08:15:12;;;;;;;0.93;0.40;;;;;26.30;102255.00;;;;5029214;28;20204;-78
2022/07/16 08:17:40;;;;;;;3.20;0.50;;;;;26.30;102267.00;;;;5029335;28;20192;-78
2022/07/16 08:20:08;;;;;;;0.60;0.40;;;;;26.40;102265.00;;;;5036318;28;20662;-78
2022/07/16 08:22:36;;;;;;;1.67;0.43;;;;;26.50;102266.00;;;;5046678;28;20215;-79
2022/07/16 08:27:49;;;;;;;0.88;0.28;;;;;26.70;102275.00;;;;5032524;28;20672;-80
2022/07/16 08:30:20;;;;;;;1.20;0.43;;;;;26.80;102274.00;;;;5042350;28;20192;-83
2022/07/16 08:32:47;;;;;;;2.35;0.60;;;;;26.90;102279.00;;;;5034859;28;20578;-80
2022/07/16 08:35:14;;;;;;;2.80;0.90;;;;;27.00;102281.00;;;;5028040;28;20211;-79
2022/07/16 08:37:43;;;;;;;1.27;0.50;;;;;27.10;102271.00;;;;5029293;28;20215;-79
2022/07/16 08:40:13;;;;;;;2.08;0.50;;;;;27.20;102279.00;;;;5048299;28;20206;-79
2022/07/16 08:42:41;;;;;;;1.05;0.40;;;;;27.30;102280.00;;;;5048595;28;20579;-79
2022/07/16 08:45:11;;;;;;;0.95;0.43;;;;;27.40;102298.00;;;;5046785;28;20704;-79
2022/07/16 08:47:39;;;;;;;3.92;0.50;;;;;27.50;102293.00;;;;5047833;28;20204;-78
2022/07/16 08:50:09;;;;;;;4.47;0.63;;;;;27.60;102291.00;;;;5031736;28;20204;-78
2022/07/16 08:52:40;;;;;;;1.27;0.40;;;;;27.60;102297.00;;;;5029250;28;20204;-79
2022/07/16 08:55:08;;;;;;;1.30;0.50;;;;;27.70;102297.00;;;;5029217;28;20209;-78
2022/07/16 08:57:39;;;;;;;3.30;0.38;;;;;27.80;102305.00;;;;5046858;28;20234;-79
2022/07/16 09:00:10;;;;;;;2.03;0.50;;;;;27.90;102302.00;;;;5048331;28;20693;-79
2022/07/16 09:02:39;;;;;;;0.30;0.30;;;;;27.90;102302.00;;;;5049244;28;20252;-79
2022/07/16 09:05:07;;;;;;;0.88;0.30;;;;;28.00;102312.00;;;;5047572;28;20200;-79
2022/07/16 09:07:35;;;;;;;1.95;0.50;;;;;28.00;102321.00;;;;5047118;28;20203;-79
2022/07/16 09:10:06;;;;;;;0.40;0.30;;;;;28.10;102322.00;;;;5032531;28;20200;-78
2022/07/16 09:12:39;;;;;;;0.50;0.40;;;;;28.10;102314.00;;;;5036652;28;20203;-79
2022/07/16 09:15:26;;;;;;;1.05;0.45;;;;;28.20;102321.00;;;;5044423;28;20200;-79
2022/07/16 09:18:19;;;;;;;2.65;0.68;;;;;28.20;102331.00;;;;5048554;28;20202;-80
2022/07/16 09:20:49;;;;;;;1.27;0.35;;;;;28.40;102338.00;;;;5041426;28;20264;-80
2022/07/16 09:23:26;;;;;;;1.08;0.40;;;;;28.30;102332.00;;;;5030398;28;20212;-81
2022/07/16 09:25:55;;;;;;;0.77;0.43;;;;;28.40;102338.00;;;;5028199;28;20228;-80
2022/07/16 09:28:24;;;;;;;1.88;0.38;;;;;28.40;102338.00;;;;5027228;28;20200;-78
2022/07/16 09:30:52;;;;;;;1.25;0.40;;;;;28.50;102329.00;;;;5027429;28;20204;-80
2022/07/16 09:33:22;;;;;;;1.35;0.40;;;;;28.60;102336.00;;;;5045628;28;20693;-80
2022/07/16 09:36:07;;;;;;;0.63;0.43;;;;;28.60;102339.00;;;;5027260;28;20240;-78
2022/07/16 09:38:53;;;;;;;1.63;0.50;;;;;28.50;102346.00;;;;5029561;28;20200;-80
2022/07/16 09:41:22;;;;;;;0.80;0.32;;;;;28.60;102344.00;;;;5045943;28;20661;-79
2022/07/16 09:43:53;;;;;;;1.10;0.35;;;;;28.60;102346.00;;;;5048107;28;20228;-79
2022/07/16 09:46:22;;;;;;;4.05;0.50;;;;;28.70;102358.00;;;;5029965;28;20278;-79
2022/07/16 09:48:52;;;;;;;0.50;0.30;;;;;28.70;102345.00;;;;5038900;28;20198;-79
2022/07/16 09:51:22;;;;;;;0.88;0.20;;;;;28.70;102343.00;;;;5031819;28;20212;-79
2022/07/16 09:53:50;;;;;;;2.35;0.57;;;;;28.80;102356.00;;;;5046035;28;20195;-79
2022/07/16 09:56:19;;;;;;;1.05;0.30;;;;;28.80;102360.00;;;;5041611;28;20220;-79
2022/07/16 09:58:48;;;;;;;0.30;0.28;;;;;28.80;102364.00;;;;5027907;28;20663;-79
2022/07/16 10:01:17;;;;;;;0.30;0.30;;;;;28.90;102365.00;;;;5027399;28;20204;-78
2022/07/16 10:03:44;;;;;;;1.25;0.43;;;;;28.90;102364.00;;;;5028835;28;20200;-79
2022/07/16 10:06:14;;;;;;;0.57;0.38;;;;;29.00;102369.00;;;;5026999;28;20224;-79
2022/07/16 10:08:43;;;;;;;2.20;0.55;;;;;29.00;102373.00;;;;5028161;28;20207;-81
2022/07/16 10:11:11;;;;;;;0.60;0.30;;;;;28.90;102367.00;;;;5027245;28;20211;-81
2022/07/16 10:13:42;;;;;;;1.20;0.25;;;;;28.90;102363.00;;;;5028225;28;20835;-80
2022/07/16 10:16:09;;;;;;;1.38;0.32;;;;;28.90;102366.00;;;;5046661;28;20196;-80
2022/07/16 10:18:40;;;;;;;1.55;0.38;;;;;28.80;102362.00;;;;5046314;28;20196;-80
2022/07/16 10:21:15;;;;;;;0.93;0.25;;;;;28.80;102369.00;;;;5042372;28;20708;-79
2022/07/16 10:23:44;;;;;;;0.70;0.38;;;;;28.80;102369.00;;;;5047574;28;20691;-79
2022/07/16 10:26:16;;;;;;;2.22;0.88;;;;;28.70;102376.00;;;;5049824;28;20227;-82
2022/07/16 10:28:48;;;;;;;2.92;0.32;;;;;28.80;102367.00;;;;5049708;28;20196;-80
2022/07/16 10:31:35;;;;;;;0.95;0.55;;;;;28.70;102381.00;;;;5045895;28;20555;-80
2022/07/16 10:34:32;;;;;;;0.52;0.25;;;;;28.60;102384.00;;;;5036469;28;20212;-80
2022/07/16 10:37:01;;;;;;;0.82;0.38;;;;;28.60;102386.00;;;;5035042;28;20757;-80
2022/07/16 10:39:29;;;;;;;2.13;0.40;;;;;28.60;102389.00;;;;5036400;28;20196;-80
2022/07/16 10:41:59;;;;;;;0.50;0.30;;;;;28.60;102384.00;;;;5031474;28;20255;-80
2022/07/16 10:44:42;;;;;;;2.83;0.52;;;;;28.70;102389.00;;;;5030387;28;20220;-79
2022/07/16 10:47:09;;;;;;;0.70;0.30;;;;;28.70;102394.00;;;;5036772;28;20720;-80
2022/07/16 10:49:37;;;;;;;0.73;0.40;;;;;28.80;102397.00;;;;5043677;28;20199;-79
2022/07/16 10:52:08;;;;;;;0.68;0.40;;;;;28.70;102399.00;;;;5049753;28;20195;-80
2022/07/16 10:54:37;;;;;;;0.70;0.38;;;;;28.70;102399.00;;;;5040857;28;20212;-79
2022/07/16 10:57:07;;;;;;;1.50;0.40;;;;;28.80;102396.00;;;;5048190;28;20705;-80
2022/07/16 10:59:36;;;;;;;0.47;0.28;;;;;28.80;102395.00;;;;5045963;28;20211;-83
2022/07/16 11:02:06;;;;;;;1.23;0.43;;;;;28.90;102395.00;;;;5030978;28;20196;-81
2022/07/16 11:04:35;;;;;;;1.65;0.43;;;;;28.90;102410.00;;;;5043247;28;20206;-80
2022/07/16 11:07:09;;;;;;;1.15;0.45;;;;;28.80;102406.00;;;;5049886;28;20219;-80
2022/07/16 11:09:39;;;;;;;2.30;0.57;;;;;28.90;102399.00;;;;5035771;28;20200;-79
2022/07/16 11:12:12;;;;;;;0.80;0.30;;;;;28.80;102407.00;;;;5038528;28;20208;-80
2022/07/16 11:14:41;;;;;;;0.80;0.30;;;;;28.80;102416.00;;;;5049164;28;20592;-79
2022/07/16 11:17:08;;;;;;;1.98;0.57;;;;;28.80;102408.00;;;;5042528;28;20200;-79
2022/07/16 11:19:37;;;;;;;0.88;0.30;;;;;28.70;102412.00;;;;5049179;28;20577;-78
2022/07/16 11:22:06;;;;;;;3.38;0.30;;;;;28.70;102402.00;;;;5047008;28;20228;-80
2022/07/16 11:24:33;;;;;;;3.40;0.50;;;;;28.80;102414.00;;;;5030064;28;20327;-80
2022/07/16 11:27:03;;;;;;;2.25;0.43;;;;;28.80;102412.00;;;;5040778;28;20232;-80
2022/07/16 11:29:31;;;;;;;2.60;0.50;;;;;28.80;102417.00;;;;5029939;28;20262;-79
2022/07/16 11:32:00;;;;;;;2.40;0.40;;;;;28.80;102406.00;;;;5043930;28;20199;-82
2022/07/16 11:34:32;;;;;;;0.63;0.50;;;;;28.80;102415.00;;;;5031122;28;20251;-79
2022/07/16 11:36:59;;;;;;;1.92;0.52;;;;;28.80;102401.00;;;;5035385;28;21062;-81
2022/07/16 11:39:29;;;;;;;2.00;0.55;;;;;28.80;102408.00;;;;5029137;28;20567;-79
2022/07/16 11:41:59;;;;;;;2.67;0.52;;;;;28.80;102400.00;;;;5050147;28;20198;-81
2022/07/16 11:44:29;;;;;;;1.92;0.45;;;;;28.80;102409.00;;;;5048896;28;20211;-81
2022/07/16 11:46:58;;;;;;;1.92;0.60;;;;;28.70;102414.00;;;;5045615;28;20251;-81
2022/07/16 11:49:28;;;;;;;2.30;0.30;;;;;28.70;102411.00;;;;5029292;28;20757;-80
2022/07/16 11:51:58;;;;;;;0.32;0.20;;;;;28.80;102411.00;;;;5030070;28;20203;-81
2022/07/16 11:54:28;;;;;;;1.58;0.30;;;;;28.80;102407.00;;;;5029722;28;20197;-81
2022/07/16 11:56:56;;;;;;;1.48;0.32;;;;;28.70;102414.00;;;;5028773;28;20714;-81
2022/07/16 11:59:25;;;;;;;0.80;0.40;;;;;28.70;102415.00;;;;5047082;28;20747;-81
2022/07/16 12:02:01;;;;;;;1.02;0.40;;;;;28.60;102420.00;;;;5047092;28;20302;-82
2022/07/16 12:04:34;;;;;;;0.45;0.20;;;;;28.60;102415.00;;;;5028454;28;20662;-81
2022/07/16 12:07:02;;;;;;;2.72;0.30;;;;;28.70;102428.00;;;;5029213;28;20228;-81
2022/07/16 12:09:35;;;;;;;0.90;0.30;;;;;28.70;102424.00;;;;5029750;28;20792;-81
2022/07/16 12:12:06;;;;;;;2.80;0.45;;;;;28.80;102419.00;;;;5044180;28;20299;-81
2022/07/16 12:14:51;;;;;;;1.13;0.20;;;;;28.70;102421.00;;;;5039507;28;20199;-81
2022/07/16 12:17:28;;;;;;;0.90;0.30;;;;;28.80;102418.00;;;;5027669;28;20199;-82
2022/07/16 12:20:12;;;;;;;1.67;0.30;;;;;28.70;102430.00;;;;5030467;28;20258;-81
2022/07/16 12:22:48;;;;;;;1.75;0.60;;;;;28.70;102437.00;;;;5029268;28;20231;-82